Time;durP1;ratioP1;P1;durP2;ratioP2;P2;SDS_P1;SDS_P2;PMS_P1;PMS_P2;Temp;Humidity;BMP_temperature;BMP_pressure;BME280_temperature;BME280_humidity;BME280_pressure;Samples;Min_cycle;Max_cycle;Signal;HPM_P1;HPM_P2
2022/11/20 00:00:09;;;;;;;4.00;3.70;;;7.00;94.60;;;;;;5095888;28;20189;-41
2022/11/20 00:02:34;;;;;;;4.27;3.87;;;7.00;94.70;;;;;;5105155;28;20196;-42
2022/11/20 00:05:00;;;;;;;4.77;3.90;;;6.90;94.60;;;;;;5082027;27;20484;-43
2022/11/20 00:07:25;;;;;;;4.43;3.90;;;6.90;94.60;;;;;;5117563;27;20169;-43
2022/11/20 00:09:51;;;;;;;3.90;3.60;;;6.90;94.70;;;;;;5091368;28;20571;-42
2022/11/20 00:12:17;;;;;;;4.47;3.53;;;6.90;94.70;;;;;;5061997;28;20444;-42
2022/11/20 00:14:42;;;;;;;3.10;2.50;;;6.90;94.70;;;;;;5096912;28;20173;-43
2022/11/20 00:17:08;;;;;;;3.20;2.37;;;6.90;96.10;;;;;;5107660;28;20246;-43
2022/11/20 00:19:34;;;;;;;3.30;3.00;;;7.60;99.90;;;;;;5100407;28;20172;-42
2022/11/20 00:22:00;;;;;;;3.57;3.13;;;8.30;99.90;;;;;;5104475;28;20440;-43
2022/11/20 00:24:25;;;;;;;4.70;3.20;;;8.50;99.90;;;;;;5103908;28;20217;-45
2022/11/20 00:26:51;;;;;;;4.40;4.00;;;8.40;99.90;;;;;;5107409;28;20299;-43
2022/11/20 00:29:17;;;;;;;5.60;3.70;;;8.30;99.90;;;;;;5096461;28;20176;-44
2022/11/20 00:31:42;;;;;;;4.00;3.60;;;8.10;99.90;;;;;;5095745;28;20463;-41
2022/11/20 00:34:09;;;;;;;4.80;4.30;;;7.90;99.90;;;;;;5095588;28;20199;-44
2022/11/20 00:36:35;;;;;;;5.57;4.63;;;7.70;98.80;;;;;;5095532;28;20210;-43
2022/11/20 00:39:00;;;;;;;4.77;4.30;;;7.60;98.20;;;;;;5103032;28;20411;-44
2022/11/20 00:41:28;;;;;;;3.53;3.23;;;7.50;97.70;;;;;;5105596;28;20275;-42
2022/11/20 00:43:54;;;;;;;4.00;3.40;;;7.40;97.40;;;;;;5099730;28;20225;-42
2022/11/20 00:46:22;;;;;;;5.20;3.50;;;7.30;97.10;;;;;;5114358;28;20422;-42
2022/11/20 00:48:48;;;;;;;4.17;3.77;;;7.30;97.00;;;;;;5113088;28;20422;-43
2022/11/20 00:51:16;;;;;;;3.53;3.23;;;7.20;96.80;;;;;;5096641;28;20840;-42
2022/11/20 00:53:43;;;;;;;3.97;3.57;;;7.20;96.70;;;;;;5106745;28;20479;-43
2022/11/20 00:56:11;;;;;;;3.50;2.80;;;7.10;96.60;;;;;;5094118;28;20430;-43
2022/11/20 00:58:38;;;;;;;3.50;3.20;;;7.10;96.50;;;;;;5093393;28;20415;-42
2022/11/20 01:01:30;;;;;;;4.13;3.53;;;7.00;96.40;;;;;;5102318;28;20878;-44
2022/11/20 01:03:58;;;;;;;3.80;3.50;;;7.00;96.20;;;;;;5108744;28;20462;-43
2022/11/20 01:06:35;;;;;;;3.57;3.27;;;7.00;96.10;;;;;;5115862;28;20430;-44
2022/11/20 01:09:10;;;;;;;3.80;3.40;;;7.00;96.00;;;;;;5117239;28;20402;-43
2022/11/20 01:11:38;;;;;;;3.70;3.00;;;6.90;95.80;;;;;;5115963;28;20524;-43
2022/11/20 01:14:07;;;;;;;3.30;3.00;;;6.90;95.70;;;;;;5097170;28;20426;-42
2022/11/20 01:16:36;;;;;;;3.40;3.10;;;6.80;95.50;;;;;;5096757;28;20880;-43
2022/11/20 01:19:04;;;;;;;3.43;3.13;;;6.80;95.40;;;;;;5117780;28;20430;-43
2022/11/20 01:21:41;;;;;;;2.93;2.53;;;6.80;95.30;;;;;;5119841;28;20430;-44
2022/11/20 01:24:08;;;;;;;2.73;2.47;;;6.80;95.30;;;;;;5116922;28;20413;-41
2022/11/20 01:26:36;;;;;;;4.33;3.07;;;6.70;95.30;;;;;;5099349;28;20430;-43
2022/11/20 01:29:03;;;;;;;3.17;2.87;;;6.70;95.20;;;;;;5098930;28;20455;-50
2022/11/20 01:31:34;;;;;;;3.30;2.87;;;6.70;95.20;;;;;;5098200;28;20442;-43
2022/11/20 01:34:02;;;;;;;2.80;2.47;;;6.70;95.20;;;;;;5100835;28;20426;-44
2022/11/20 01:36:30;;;;;;;3.17;2.87;;;6.60;95.10;;;;;;5118700;28;21096;-42
2022/11/20 01:38:58;;;;;;;4.30;2.83;;;6.60;95.10;;;;;;5093075;28;20415;-42
2022/11/20 01:44:14;;;;;;;3.80;2.97;;;6.60;95.10;;;;;;5104924;28;20412;-42
2022/11/20 01:46:45;;;;;;;5.23;2.87;;;6.50;95.00;;;;;;5099551;28;20430;-42
2022/11/20 01:49:16;;;;;;;3.30;3.00;;;6.50;95.10;;;;;;5081575;28;20422;-44
2022/11/20 01:52:00;;;;;;;3.20;2.63;;;6.50;95.20;;;;;;5088330;28;20494;-42
2022/11/20 01:54:32;;;;;;;2.90;2.60;;;6.50;95.30;;;;;;5120616;28;20418;-43
2022/11/20 01:56:59;;;;;;;3.97;2.70;;;6.40;95.30;;;;;;5121616;28;20470;-42
2022/11/20 01:59:26;;;;;;;2.70;2.50;;;6.40;95.30;;;;;;5121481;28;20424;-42
2022/11/20 02:01:52;;;;;;;4.00;2.83;;;6.50;95.20;;;;;;5102633;28;20761;-44
2022/11/20 02:04:18;;;;;;;3.13;2.70;;;6.40;95.10;;;;;;5110557;28;20438;-42
2022/11/20 02:07:04;;;;;;;4.83;3.03;;;6.40;95.00;;;;;;5080991;28;20277;-42
2022/11/20 02:09:30;;;;;;;3.40;3.10;;;6.30;95.00;;;;;;5111883;28;20851;-43
2022/11/20 02:11:56;;;;;;;3.57;2.97;;;6.30;95.00;;;;;;5104748;28;20525;-45
2022/11/20 02:14:22;;;;;;;4.10;2.90;;;6.30;95.10;;;;;;5081041;28;20241;-45
2022/11/20 02:16:48;;;;;;;5.00;3.30;;;6.30;95.50;;;;;;5104103;27;20553;-42
2022/11/20 02:19:23;;;;;;;3.10;2.80;;;6.30;95.10;;;;;;5140457;27;20406;-43
2022/11/20 02:22:14;;;;;;;2.63;2.43;;;6.20;95.00;;;;;;5121995;27;20424;-42
2022/11/20 02:24:40;;;;;;;3.60;2.93;;;6.20;94.90;;;;;;5138216;27;20659;-42
2022/11/20 02:27:11;;;;;;;3.77;3.43;;;6.20;94.90;;;;;;5081796;28;20523;-42
2022/11/20 02:29:46;;;;;;;3.17;2.87;;;6.20;95.10;;;;;;5080614;28;20342;-42
2022/11/20 02:32:21;;;;;;;4.00;3.60;;;6.20;95.10;;;;;;5082268;28;20676;-42
2022/11/20 02:34:47;;;;;;;4.53;3.73;;;6.20;95.20;;;;;;5080852;28;20425;-42
2022/11/20 02:37:13;;;;;;;4.53;3.70;;;6.20;95.60;;;;;;5105598;28;20470;-42
2022/11/20 02:39:38;;;;;;;3.70;3.40;;;6.20;95.50;;;;;;5100784;28;20191;-42
2022/11/20 02:42:04;;;;;;;4.80;4.40;;;6.20;95.60;;;;;;5102478;28;20172;-45
2022/11/20 02:44:30;;;;;;;6.93;4.63;;;6.20;95.60;;;;;;5110476;28;20180;-42
2022/11/20 02:46:58;;;;;;;5.73;5.13;;;6.20;95.70;;;;;;5099808;28;20569;-44
2022/11/20 02:49:24;;;;;;;4.70;4.10;;;6.20;95.80;;;;;;5099693;28;20196;-42
2022/11/20 02:51:49;;;;;;;4.63;4.23;;;6.20;96.00;;;;;;5099300;28;20852;-43
2022/11/20 02:54:15;;;;;;;5.50;4.90;;;6.20;96.10;;;;;;5099123;28;20181;-43
2022/11/20 02:56:41;;;;;;;7.20;4.23;;;6.20;96.20;;;;;;5099771;28;20212;-42
2022/11/20 02:59:06;;;;;;;4.43;4.03;;;6.20;96.30;;;;;;5081096;28;20165;-42
2022/11/20 03:01:32;;;;;;;5.30;4.80;;;6.20;96.30;;;;;;5099213;28;20188;-44
2022/11/20 03:03:58;;;;;;;5.33;4.80;;;6.20;96.30;;;;;;5098260;28;20176;-42
2022/11/20 03:06:23;;;;;;;4.80;4.30;;;6.20;96.30;;;;;;5109791;28;20216;-44
2022/11/20 03:08:49;;;;;;;4.80;4.40;;;6.20;96.20;;;;;;5117562;28;20172;-45
2022/11/20 03:11:14;;;;;;;4.93;4.30;;;6.20;96.20;;;;;;5117843;28;20190;-44
2022/11/20 03:13:40;;;;;;;5.40;4.90;;;6.20;96.30;;;;;;5118155;28;20186;-42
2022/11/20 03:16:14;;;;;;;5.60;5.10;;;6.20;96.30;;;;;;5118886;28;20588;-42
2022/11/20 03:18:40;;;;;;;6.23;5.37;;;6.20;96.40;;;;;;5118992;28;20184;-43
2022/11/20 03:21:06;;;;;;;5.53;4.37;;;6.20;96.30;;;;;;5117885;28;20524;-44
2022/11/20 03:23:32;;;;;;;5.80;4.70;;;6.20;96.30;;;;;;5120150;28;20498;-43
2022/11/20 03:26:31;;;;;;;5.97;5.23;;;6.20;96.30;;;;;;5118962;28;20422;-44
2022/11/20 03:29:01;;;;;;;4.57;4.17;;;6.20;96.20;;;;;;5062209;28;20422;-44
2022/11/20 03:31:32;;;;;;;4.90;4.40;;;6.20;96.20;;;;;;5116995;28;20886;-43
2022/11/20 03:33:58;;;;;;;5.80;5.30;;;6.10;96.10;;;;;;5116165;28;20421;-44
2022/11/20 03:36:25;;;;;;;5.63;5.00;;;6.10;96.20;;;;;;5118532;28;20524;-42
2022/11/20 03:38:52;;;;;;;5.43;4.73;;;6.10;96.10;;;;;;5094732;28;20423;-42
2022/11/20 03:41:26;;;;;;;5.43;4.93;;;6.10;96.10;;;;;;5096011;28;20450;-43
2022/11/20 03:43:53;;;;;;;5.50;4.90;;;6.10;96.10;;;;;;5097359;28;20497;-42
2022/11/20 03:46:19;;;;;;;4.43;4.00;;;6.10;96.10;;;;;;5098138;28;20518;-43
2022/11/20 03:48:45;;;;;;;4.43;4.03;;;6.00;96.00;;;;;;5093632;28;20508;-42
2022/11/20 03:51:16;;;;;;;4.63;4.07;;;6.00;96.00;;;;;;5118664;28;20523;-46
2022/11/20 03:53:43;;;;;;;4.83;4.43;;;6.00;96.00;;;;;;5118868;28;20180;-44
2022/11/20 03:56:09;;;;;;;4.47;4.03;;;6.00;95.90;;;;;;5117953;28;20522;-44
2022/11/20 03:58:44;;;;;;;5.43;4.93;;;6.00;95.90;;;;;;5116298;28;20462;-43
2022/11/20 04:01:13;;;;;;;8.63;4.40;;;5.90;95.80;;;;;;5116561;28;20499;-43
2022/11/20 04:03:41;;;;;;;5.87;4.63;;;5.90;95.80;;;;;;5108637;28;20432;-45
2022/11/20 04:06:10;;;;;;;4.87;4.47;;;5.90;96.10;;;;;;5117484;28;20421;-43
2022/11/20 04:08:35;;;;;;;4.57;4.17;;;5.90;95.80;;;;;;5116055;28;20433;-42
2022/11/20 04:11:12;;;;;;;4.80;4.40;;;5.90;95.90;;;;;;5103185;28;20507;-45
2022/11/20 04:13:38;;;;;;;5.50;4.50;;;5.90;95.90;;;;;;5096738;28;20168;-42
2022/11/20 04:16:05;;;;;;;5.20;4.63;;;5.90;95.90;;;;;;5096909;28;20489;-46
2022/11/20 04:18:30;;;;;;;4.97;4.23;;;5.90;96.00;;;;;;5097032;28;20872;-42
2022/11/20 04:20:57;;;;;;;5.77;5.10;;;5.90;96.00;;;;;;5096705;28;20712;-42
2022/11/20 04:23:23;;;;;;;5.00;4.50;;;5.90;96.10;;;;;;5098053;28;20184;-45
2022/11/20 04:25:49;;;;;;;4.63;4.23;;;5.90;96.20;;;;;;5098501;28;20431;-44
2022/11/20 04:28:14;;;;;;;5.13;4.73;;;5.90;96.20;;;;;;5079758;28;20722;-43
2022/11/20 04:30:40;;;;;;;5.20;4.50;;;5.90;96.20;;;;;;5097547;28;20558;-43
2022/11/20 04:33:06;;;;;;;4.70;4.20;;;6.00;96.30;;;;;;5113115;27;20184;-43
2022/11/20 04:35:36;;;;;;;5.43;4.70;;;6.00;96.30;;;;;;5116477;28;20191;-44
2022/11/20 04:38:01;;;;;;;4.77;4.10;;;6.00;96.30;;;;;;5116827;28;20729;-43
2022/11/20 04:40:28;;;;;;;5.13;4.70;;;6.00;96.30;;;;;;5115202;28;20561;-42
2022/11/20 04:42:54;;;;;;;4.60;4.20;;;6.10;96.40;;;;;;5115772;28;20205;-43
2022/11/20 04:45:20;;;;;;;4.93;4.53;;;6.10;96.40;;;;;;5115884;28;20426;-42
2022/11/20 04:47:46;;;;;;;6.63;4.40;;;6.00;96.30;;;;;;5115863;28;20416;-42
2022/11/20 04:50:12;;;;;;;6.80;4.60;;;6.00;96.40;;;;;;5115078;28;20406;-44
2022/11/20 04:52:37;;;;;;;7.00;4.60;;;6.00;96.50;;;;;;5115089;28;20164;-42
2022/11/20 04:55:03;;;;;;;4.70;4.30;;;6.10;96.60;;;;;;5117000;28;20176;-45
2022/11/20 04:57:29;;;;;;;6.10;4.40;;;6.10;96.60;;;;;;5118053;28;20210;-42
2022/11/20 04:59:54;;;;;;;5.10;4.60;;;6.10;96.70;;;;;;5117063;28;20487;-43
2022/11/20 05:02:20;;;;;;;5.70;4.50;;;6.10;96.70;;;;;;5117630;28;20176;-44
2022/11/20 05:04:46;;;;;;;5.87;4.83;;;6.10;96.70;;;;;;5116675;28;20176;-44
2022/11/20 05:07:11;;;;;;;5.07;4.40;;;6.10;96.80;;;;;;5117517;28;20185;-42
2022/11/20 05:09:37;;;;;;;4.90;4.50;;;6.10;96.80;;;;;;5117050;28;20186;-42
2022/11/20 05:12:03;;;;;;;5.47;4.30;;;6.10;96.90;;;;;;5116215;28;20180;-44
2022/11/20 05:14:28;;;;;;;5.73;4.77;;;6.20;96.90;;;;;;5115877;28;20198;-43
2022/11/20 05:16:54;;;;;;;4.77;4.30;;;6.20;96.90;;;;;;5117123;28;20228;-42
2022/11/20 05:19:20;;;;;;;4.63;4.23;;;6.20;97.00;;;;;;5117551;28;20176;-44
2022/11/20 05:21:45;;;;;;;4.37;3.97;;;6.20;96.90;;;;;;5116668;28;20176;-43
2022/11/20 05:24:11;;;;;;;6.97;4.40;;;6.30;96.90;;;;;;5116976;28;20199;-42
2022/11/20 05:26:37;;;;;;;5.40;4.13;;;6.30;96.90;;;;;;5115704;28;20460;-42
2022/11/20 05:29:02;;;;;;;4.40;4.00;;;6.30;96.80;;;;;;5095947;28;20184;-43
2022/11/20 05:31:28;;;;;;;5.40;4.50;;;6.30;96.80;;;;;;5095478;28;20177;-43
2022/11/20 05:33:54;;;;;;;6.73;4.50;;;6.30;96.70;;;;;;5097283;28;20208;-43
2022/11/20 05:36:20;;;;;;;5.07;4.03;;;6.30;96.80;;;;;;5097602;28;20176;-43
2022/11/20 05:38:46;;;;;;;4.40;4.00;;;6.30;96.80;;;;;;5097748;28;20411;-44
2022/11/20 05:41:14;;;;;;;4.50;4.10;;;6.30;96.90;;;;;;5095780;28;20209;-43
2022/11/20 05:43:41;;;;;;;4.30;3.83;;;6.30;96.80;;;;;;5096819;28;20168;-43
2022/11/20 05:46:08;;;;;;;5.63;4.10;;;6.30;96.80;;;;;;5094834;28;20509;-41
2022/11/20 05:48:34;;;;;;;4.63;4.23;;;6.30;96.80;;;;;;5097461;28;20805;-43
2022/11/20 05:51:02;;;;;;;4.97;4.47;;;6.30;96.70;;;;;;5095017;28;20429;-45
2022/11/20 05:53:28;;;;;;;3.57;3.27;;;6.30;96.70;;;;;;5095870;28;20433;-43
2022/11/20 05:55:58;;;;;;;4.50;4.10;;;6.60;99.90;;;;;;5096964;28;20442;-42
2022/11/20 05:58:23;;;;;;;4.50;4.10;;;7.20;99.90;;;;;;5079043;28;20196;-41
2022/11/20 06:00:49;;;;;;;4.40;4.00;;;7.50;99.90;;;;;;5095914;28;20421;-43
2022/11/20 06:03:14;;;;;;;3.97;3.47;;;7.40;99.90;;;;;;5095983;28;20173;-45
2022/11/20 06:05:40;;;;;;;4.93;3.77;;;7.30;99.40;;;;;;5098568;28;20181;-41
2022/11/20 06:08:06;;;;;;;4.40;4.00;;;7.20;98.20;;;;;;5100302;28;20519;-42
2022/11/20 06:10:31;;;;;;;4.50;4.10;;;7.10;97.20;;;;;;5100286;28;20459;-41
2022/11/20 06:13:00;;;;;;;3.57;3.27;;;7.00;96.50;;;;;;5100320;28;20184;-43
2022/11/20 06:15:25;;;;;;;4.13;3.60;;;6.80;96.20;;;;;;5098681;28;20517;-40
2022/11/20 06:17:55;;;;;;;4.57;3.93;;;6.70;96.20;;;;;;5098918;28;20470;-42
2022/11/20 06:20:21;;;;;;;4.43;3.80;;;6.60;96.20;;;;;;5098724;28;20216;-41
2022/11/20 06:22:47;;;;;;;6.03;4.00;;;6.50;96.30;;;;;;5098261;28;20451;-41
2022/11/20 06:25:13;;;;;;;3.63;3.33;;;6.40;96.40;;;;;;5099487;28;20466;-43
2022/11/20 06:27:38;;;;;;;4.37;4.07;;;6.30;96.60;;;;;;5098635;28;20175;-41
2022/11/20 06:30:04;;;;;;;4.27;3.83;;;6.30;96.80;;;;;;5112742;28;20226;-41
2022/11/20 06:32:30;;;;;;;3.83;3.43;;;6.30;96.80;;;;;;5117779;28;20602;-40
2022/11/20 06:34:56;;;;;;;5.37;3.90;;;6.20;96.90;;;;;;5118446;28;20750;-42
2022/11/20 06:37:21;;;;;;;4.63;3.43;;;6.20;97.30;;;;;;5118327;28;20483;-42
2022/11/20 06:39:47;;;;;;;4.23;3.83;;;6.20;97.10;;;;;;5118788;28;20618;-42
2022/11/20 06:42:12;;;;;;;5.63;4.50;;;6.20;97.10;;;;;;5118091;28;20195;-42
2022/11/20 06:44:38;;;;;;;4.60;4.10;;;6.10;97.10;;;;;;5099873;28;20626;-43
2022/11/20 06:47:04;;;;;;;4.03;3.73;;;6.10;97.10;;;;;;5118445;28;20184;-41
2022/11/20 06:49:29;;;;;;;4.00;3.60;;;6.10;97.10;;;;;;5119032;28;20180;-42
2022/11/20 06:51:55;;;;;;;5.50;4.30;;;6.10;97.20;;;;;;5114515;28;20249;-42
2022/11/20 06:54:20;;;;;;;4.50;3.70;;;6.10;97.20;;;;;;5099350;28;20184;-41
2022/11/20 06:56:49;;;;;;;3.73;3.30;;;6.10;97.30;;;;;;5098226;28;20220;-45
2022/11/20 06:59:15;;;;;;;3.53;3.23;;;6.10;97.30;;;;;;5097160;28;20172;-43
2022/11/20 07:01:40;;;;;;;3.67;3.37;;;6.10;97.30;;;;;;5097875;28;20534;-42
2022/11/20 07:04:06;;;;;;;4.37;3.67;;;6.10;97.30;;;;;;5098298;28;20183;-41
2022/11/20 07:06:32;;;;;;;4.27;3.80;;;6.10;97.40;;;;;;5098371;28;20205;-42
2022/11/20 07:08:57;;;;;;;4.90;4.10;;;6.10;97.30;;;;;;5099261;28;20252;-43
2022/11/20 07:11:23;;;;;;;4.13;3.73;;;6.20;97.40;;;;;;5099566;28;20184;-41
2022/11/20 07:13:49;;;;;;;3.97;3.57;;;6.20;97.40;;;;;;5081114;28;20177;-42
2022/11/20 07:16:15;;;;;;;3.87;3.57;;;6.20;97.30;;;;;;5116101;28;20501;-43
2022/11/20 07:18:40;;;;;;;3.80;3.40;;;6.30;97.30;;;;;;5102149;28;20243;-41
2022/11/20 07:21:09;;;;;;;3.17;2.87;;;6.30;97.20;;;;;;5108589;28;20197;-45
2022/11/20 07:23:35;;;;;;;4.70;3.23;;;6.40;97.20;;;;;;5098526;28;20188;-40
2022/11/20 07:26:09;;;;;;;4.73;3.10;;;6.40;97.20;;;;;;5096433;28;20466;-41
2022/11/20 07:28:35;;;;;;;3.30;3.00;;;6.40;97.10;;;;;;5061877;28;20422;-41
2022/11/20 07:31:01;;;;;;;3.20;2.90;;;6.50;97.00;;;;;;5077425;28;20516;-42
2022/11/20 07:33:26;;;;;;;4.50;3.20;;;6.60;97.00;;;;;;5095221;28;20852;-42
2022/11/20 07:35:52;;;;;;;4.50;3.70;;;6.70;96.90;;;;;;5094414;28;20693;-42
2022/11/20 07:38:18;;;;;;;3.50;3.03;;;6.80;96.90;;;;;;5095925;28;20207;-40
2022/11/20 07:40:43;;;;;;;3.73;3.43;;;7.00;96.60;;;;;;5096524;28;20173;-43
2022/11/20 07:43:09;;;;;;;3.03;2.70;;;7.10;96.30;;;;;;5097245;28;20575;-43
2022/11/20 07:45:35;;;;;;;3.90;2.97;;;7.20;96.20;;;;;;5097632;28;20559;-40
2022/11/20 07:48:00;;;;;;;3.27;2.63;;;7.20;96.10;;;;;;5096046;28;20268;-42
2022/11/20 07:50:26;;;;;;;3.10;2.80;;;7.30;95.90;;;;;;5097294;28;20275;-43
2022/11/20 07:52:52;;;;;;;5.00;3.10;;;7.50;96.10;;;;;;5095931;28;20210;-42
2022/11/20 07:55:18;;;;;;;3.50;3.00;;;7.70;95.70;;;;;;5094207;28;20181;-41
2022/11/20 07:57:43;;;;;;;4.87;3.20;;;7.80;95.30;;;;;;5094291;28;20459;-42
2022/11/20 08:00:11;;;;;;;3.17;2.87;;;7.80;95.10;;;;;;5094617;28;20431;-41
2022/11/20 08:02:39;;;;;;;2.80;2.60;;;7.80;95.00;;;;;;5078573;28;20431;-41
2022/11/20 08:05:05;;;;;;;4.40;3.10;;;7.80;95.00;;;;;;5098003;28;20468;-41
2022/11/20 08:07:42;;;;;;;2.73;2.53;;;7.80;95.00;;;;;;5097852;28;20427;-43
2022/11/20 08:10:09;;;;;;;3.50;3.20;;;7.80;95.10;;;;;;5079372;28;20437;-44
2022/11/20 08:15:19;;;;;;;3.10;2.80;;;7.80;95.20;;;;;;5096271;28;20909;-41
2022/11/20 08:17:45;;;;;;;3.03;2.73;;;7.80;95.10;;;;;;5106363;28;20783;-42
2022/11/20 08:20:10;;;;;;;3.57;3.10;;;7.80;95.20;;;;;;5118784;28;20172;-42
2022/11/20 08:22:36;;;;;;;3.07;2.60;;;7.70;95.20;;;;;;5117082;28;20513;-44
2022/11/20 08:25:02;;;;;;;2.63;2.03;;;7.70;95.40;;;;;;5118202;28;20169;-42
2022/11/20 08:27:27;;;;;;;2.77;2.50;;;7.70;95.50;;;;;;5118171;28;20254;-40
2022/11/20 08:29:53;;;;;;;2.60;2.37;;;7.60;95.60;;;;;;5116207;28;20180;-42
2022/11/20 08:32:18;;;;;;;3.83;2.57;;;7.70;95.80;;;;;;5115687;28;20191;-41
2022/11/20 08:34:44;;;;;;;5.27;2.40;;;7.70;95.80;;;;;;5116557;28;20172;-42
2022/11/20 08:37:10;;;;;;;5.27;2.97;;;7.70;95.80;;;;;;5117721;28;20203;-42
2022/11/20 08:39:35;;;;;;;2.70;2.50;;;7.70;95.90;;;;;;5116475;28;20642;-43
2022/11/20 08:42:01;;;;;;;2.57;2.37;;;7.80;96.00;;;;;;5119642;28;20199;-45
2022/11/20 08:44:26;;;;;;;2.43;2.23;;;7.80;95.90;;;;;;5099426;28;20211;-43
2022/11/20 08:46:52;;;;;;;3.33;2.50;;;7.90;95.70;;;;;;5115307;28;20180;-42
2022/11/20 08:49:18;;;;;;;2.83;2.53;;;8.00;95.70;;;;;;5110356;28;20195;-42
2022/11/20 08:51:44;;;;;;;2.40;2.20;;;8.10;95.50;;;;;;5094941;28;20176;-42
2022/11/20 08:54:10;;;;;;;2.00;1.80;;;8.20;95.40;;;;;;5095568;28;20427;-41
2022/11/20 08:56:36;;;;;;;2.23;1.73;;;8.30;95.20;;;;;;5102405;28;20448;-41
2022/11/20 08:59:05;;;;;;;2.00;1.80;;;8.40;95.10;;;;;;5116100;28;20574;-42
2022/11/20 09:01:31;;;;;;;2.40;2.03;;;8.50;94.70;;;;;;5090946;28;20487;-42
2022/11/20 09:03:59;;;;;;;2.17;1.83;;;8.60;94.40;;;;;;5074712;28;20875;-43
2022/11/20 09:06:26;;;;;;;2.00;1.80;;;8.70;94.10;;;;;;5102168;28;20523;-45
2022/11/20 09:08:53;;;;;;;3.00;1.80;;;8.90;93.90;;;;;;5116443;28;20969;-42
2022/11/20 09:11:19;;;;;;;2.77;2.07;;;8.90;93.50;;;;;;5115479;28;20430;-43
2022/11/20 09:13:45;;;;;;;1.87;1.60;;;8.90;93.40;;;;;;5114607;28;20428;-46
2022/11/20 09:16:11;;;;;;;1.77;1.57;;;8.80;93.30;;;;;;5090624;28;20231;-43
2022/11/20 09:18:38;;;;;;;2.60;1.40;;;8.80;93.40;;;;;;5104661;28;20484;-41
2022/11/20 09:21:10;;;;;;;2.03;1.40;;;8.80;93.50;;;;;;5108622;28;20189;-43
2022/11/20 09:23:39;;;;;;;2.20;2.00;;;8.80;93.50;;;;;;5105245;28;20426;-43
2022/11/20 09:26:08;;;;;;;3.70;2.07;;;8.80;93.50;;;;;;5105228;28;20435;-44
2022/11/20 09:28:35;;;;;;;2.47;1.60;;;8.80;93.50;;;;;;5095241;28;20444;-42
2022/11/20 09:31:04;;;;;;;1.70;1.30;;;8.80;93.30;;;;;;5082672;28;20868;-46
2022/11/20 09:33:30;;;;;;;2.60;1.40;;;8.80;93.30;;;;;;5084716;28;20459;-43
2022/11/20 09:35:56;;;;;;;2.83;2.17;;;8.70;93.30;;;;;;5118572;28;20473;-41
2022/11/20 09:38:22;;;;;;;3.23;2.90;;;8.60;93.50;;;;;;5082803;28;20479;-41
2022/11/20 09:41:33;;;;;;;3.60;2.80;;;8.60;93.60;;;;;;5100811;28;20517;-42
2022/11/20 09:44:43;;;;;;;3.70;3.07;;;8.60;93.70;;;;;;5088826;28;20419;-41
2022/11/20 09:47:33;;;;;;;2.43;2.17;;;8.50;93.70;;;;;;5093877;28;20538;-43
2022/11/20 09:50:29;;;;;;;1.67;1.40;;;8.50;93.80;;;;;;5118495;28;20866;-43
2022/11/20 09:53:16;;;;;;;1.57;1.40;;;8.50;93.70;;;;;;5117649;28;20402;-41
2022/11/20 09:55:42;;;;;;;2.00;1.40;;;8.50;93.60;;;;;;5118023;28;20566;-41
2022/11/20 09:58:34;;;;;;;1.83;1.43;;;8.40;93.60;;;;;;5096028;28;21152;-42
2022/11/20 10:01:09;;;;;;;1.47;1.20;;;8.40;93.80;;;;;;5111538;28;20521;-43
2022/11/20 10:03:41;;;;;;;2.03;1.20;;;8.40;93.80;;;;;;5091779;28;20417;-43
2022/11/20 10:06:13;;;;;;;1.60;1.00;;;8.40;94.00;;;;;;5111963;28;20433;-44
2022/11/20 10:08:49;;;;;;;1.47;1.10;;;8.40;94.10;;;;;;5099106;28;20475;-43
2022/11/20 10:11:44;;;;;;;1.70;1.13;;;8.50;94.00;;;;;;5100944;28;20433;-42
2022/11/20 10:14:23;;;;;;;1.47;1.00;;;8.60;94.00;;;;;;5091604;28;20501;-43
2022/11/20 10:17:03;;;;;;;1.60;1.10;;;8.70;93.80;;;;;;5094607;28;20547;-42
2022/11/20 10:19:50;;;;;;;1.53;1.23;;;8.70;93.60;;;;;;5117052;28;20422;-41
2022/11/20 10:22:34;;;;;;;2.47;1.20;;;8.70;93.60;;;;;;5117306;27;20425;-42
2022/11/20 10:25:08;;;;;;;1.03;0.70;;;8.70;93.80;;;;;;5115853;28;20528;-43
2022/11/20 10:27:40;;;;;;;2.97;2.13;;;8.70;93.90;;;;;;5119037;28;20715;-42
2022/11/20 10:30:09;;;;;;;1.50;1.10;;;8.80;94.10;;;;;;5119723;28;20412;-42
2022/11/20 10:32:41;;;;;;;1.33;1.00;;;8.90;94.20;;;;;;5102099;28;20693;-42
2022/11/20 10:35:14;;;;;;;1.10;0.80;;;8.90;94.10;;;;;;5100676;28;20459;-45
2022/11/20 10:37:49;;;;;;;1.33;1.00;;;9.00;94.20;;;;;;5100346;28;20467;-41
2022/11/20 10:40:17;;;;;;;1.20;1.10;;;9.00;94.20;;;;;;5117594;28;20421;-41
2022/11/20 10:42:55;;;;;;;1.80;1.50;;;9.00;94.30;;;;;;5117522;28;20418;-42
2022/11/20 10:45:24;;;;;;;2.07;1.20;;;9.00;94.30;;;;;;5116855;28;20432;-41
2022/11/20 10:48:07;;;;;;;2.27;1.37;;;8.90;94.30;;;;;;5116991;28;20861;-42
2022/11/20 10:50:36;;;;;;;1.77;1.37;;;8.90;94.40;;;;;;5099141;28;20865;-41
2022/11/20 10:53:07;;;;;;;2.50;1.30;;;8.80;94.50;;;;;;5100771;28;20764;-41
2022/11/20 10:55:45;;;;;;;3.90;1.50;;;8.80;94.60;;;;;;5118131;28;20760;-41
2022/11/20 10:58:21;;;;;;;1.40;1.10;;;8.80;94.80;;;;;;5100402;28;20945;-43
2022/11/20 11:00:47;;;;;;;1.50;1.30;;;8.80;95.00;;;;;;5099416;28;20712;-41
2022/11/20 11:03:28;;;;;;;1.60;1.30;;;8.80;95.00;;;;;;5117124;28;20425;-44
2022/11/20 11:06:08;;;;;;;2.10;1.70;;;9.10;95.20;;;;;;5101448;28;20232;-45
2022/11/20 11:08:44;;;;;;;1.60;1.50;;;9.40;94.90;;;;;;5084499;28;20431;-41
2022/11/20 11:11:26;;;;;;;3.30;1.70;;;9.60;94.40;;;;;;5120163;28;20813;-42
2022/11/20 11:13:53;;;;;;;2.20;1.90;;;9.80;94.10;;;;;;5100776;28;20414;-45
2022/11/20 11:16:22;;;;;;;2.50;2.10;;;9.90;93.60;;;;;;5118200;28;20900;-44
2022/11/20 11:18:48;;;;;;;2.00;1.60;;;10.00;92.90;;;;;;5118959;28;20821;-44
2022/11/20 11:21:13;;;;;;;1.63;1.20;;;10.10;92.70;;;;;;5118764;28;20460;-42
2022/11/20 11:23:41;;;;;;;1.60;1.23;;;10.20;92.50;;;;;;5099992;28;20188;-41
2022/11/20 11:26:21;;;;;;;1.90;1.43;;;10.40;92.30;;;;;;5117697;28;20169;-43
2022/11/20 11:29:00;;;;;;;2.40;1.40;;;10.60;92.00;;;;;;5117842;28;20413;-45
2022/11/20 11:31:31;;;;;;;2.37;1.30;;;10.80;91.50;;;;;;5100369;28;20839;-41
2022/11/20 11:34:16;;;;;;;2.27;1.90;;;11.00;91.40;;;;;;5099282;28;20440;-42
2022/11/20 11:36:56;;;;;;;2.53;1.70;;;12.80;91.40;;;;;;5117126;28;20425;-41
2022/11/20 11:39:22;;;;;;;1.70;1.60;;;15.40;88.30;;;;;;5098040;28;20502;-42
2022/11/20 11:41:48;;;;;;;1.90;1.30;;;18.40;75.80;;;;;;5099814;28;20586;-44
2022/11/20 11:47:25;;;;;;;1.60;1.17;;;23.00;54.90;;;;;;5102652;28;20475;-41
2022/11/20 11:50:08;;;;;;;1.63;1.10;;;25.50;48.30;;;;;;5098157;28;20741;-42
2022/11/20 11:52:42;;;;;;;1.90;1.20;;;27.10;45.30;;;;;;5096515;28;20425;-42
2022/11/20 11:55:10;;;;;;;4.20;1.23;;;28.10;43.30;;;;;;5098267;28;20409;-45
2022/11/20 11:57:45;;;;;;;2.50;1.20;;;28.30;40.80;;;;;;5093496;28;20903;-40
2022/11/20 12:00:14;;;;;;;2.33;1.23;;;28.30;39.80;;;;;;5115533;28;20848;-41
2022/11/20 12:02:45;;;;;;;1.60;1.10;;;28.10;40.50;;;;;;5113051;28;20451;-43
2022/11/20 12:05:45;;;;;;;1.67;1.10;;;28.20;40.60;;;;;;5112608;28;20424;-41
2022/11/20 12:08:38;;;;;;;2.03;1.00;;;29.30;38.30;;;;;;5093263;28;20504;-42
2022/11/20 12:11:07;;;;;;;2.70;1.37;;;29.20;36.70;;;;;;5113473;28;20414;-40
2022/11/20 12:13:56;;;;;;;1.43;1.00;;;28.90;36.70;;;;;;5096037;28;20502;-44
2022/11/20 12:16:21;;;;;;;1.83;1.27;;;28.40;36.60;;;;;;5096074;28;20960;-44
2022/11/20 12:18:52;;;;;;;2.47;1.33;;;27.50;36.00;;;;;;5076885;28;20463;-43
2022/11/20 12:21:24;;;;;;;2.53;1.70;;;26.10;35.30;;;;;;5075786;28;20430;-42
2022/11/20 12:24:11;;;;;;;3.00;1.23;;;24.30;35.10;;;;;;5077345;28;20433;-41
2022/11/20 12:26:45;;;;;;;1.53;0.80;;;22.40;36.20;;;;;;5096483;28;20711;-40
2022/11/20 12:29:17;;;;;;;2.27;1.00;;;20.90;37.40;;;;;;5095267;28;20415;-43
2022/11/20 12:31:58;;;;;;;1.77;1.13;;;19.70;38.50;;;;;;5095836;28;20704;-45
2022/11/20 12:34:44;;;;;;;2.10;1.60;;;18.80;39.50;;;;;;5095633;28;20428;-42
2022/11/20 12:37:12;;;;;;;2.07;1.40;;;18.20;40.50;;;;;;5110926;28;20536;-43
2022/11/20 12:39:42;;;;;;;1.33;1.00;;;18.10;41.00;;;;;;5113614;28;20521;-40
2022/11/20 12:45:14;;;;;;;2.37;1.03;;;17.90;41.70;;;;;;5112676;28;20412;-42
2022/11/20 12:48:04;;;;;;;1.70;1.10;;;18.60;41.80;;;;;;5094660;28;20517;-42
2022/11/20 12:51:01;;;;;;;1.43;0.90;;;20.70;40.30;;;;;;5113314;28;20419;-43
2022/11/20 12:54:00;;;;;;;2.20;1.20;;;23.00;38.00;;;;;;5067899;28;20510;-43
2022/11/20 12:56:43;;;;;;;3.30;1.30;;;25.80;35.70;;;;;;5095585;28;20536;-42
2022/11/20 12:59:39;;;;;;;1.70;1.30;;;28.00;34.10;;;;;;5096291;28;20525;-44
2022/11/20 13:02:21;;;;;;;3.83;1.20;;;29.40;34.10;;;;;;5113080;28;20402;-44
2022/11/20 13:05:01;;;;;;;2.13;1.20;;;30.80;32.60;;;;;;5111004;28;20406;-44
2022/11/20 13:07:28;;;;;;;3.20;1.40;;;31.20;31.10;;;;;;5093951;28;21003;-43
2022/11/20 13:09:54;;;;;;;2.23;1.20;;;31.70;29.70;;;;;;5113345;28;20418;-42
2022/11/20 13:12:33;;;;;;;1.87;0.93;;;32.00;29.00;;;;;;5097518;28;20414;-43
2022/11/20 13:15:06;;;;;;;1.90;1.57;;;32.20;28.90;;;;;;5120700;28;20168;-43
2022/11/20 13:17:38;;;;;;;4.33;1.57;;;32.70;28.20;;;;;;5115896;28;20484;-44
2022/11/20 13:20:06;;;;;;;2.40;1.37;;;33.30;27.40;;;;;;5118118;28;20372;-43